Time;durP1;ratioP1;P1;durP2;ratioP2;P2;SDS_P1;SDS_P2;PMS_P1;PMS_P2;Temp;Humidity;BMP_temperature;BMP_pressure;BME280_temperature;BME280_humidity;BME280_pressure;Samples;Min_cycle;Max_cycle;Signal;HPM_P1;HPM_P2
2023/04/14 00:00:33;;;;;;;7.03;5.90;;;7.50;1.00;;;;;;6209890;23;20177;-78
2023/04/14 00:02:59;;;;;;;6.70;6.00;;;7.50;1.00;;;;;;6183596;23;20178;-79
2023/04/14 00:05:32;;;;;;;7.05;5.88;;;7.50;1.00;;;;;;6182356;23;20377;-79
2023/04/14 00:07:58;;;;;;;8.33;6.67;;;7.90;1.00;;;;;;6209755;23;20571;-80
2023/04/14 00:10:25;;;;;;;7.93;6.37;;;7.50;1.00;;;;;;6182564;23;20237;-79
2023/04/14 00:12:51;;;;;;;5.87;5.37;;;7.50;1.00;;;;;;6183881;23;20162;-79
2023/04/14 00:15:16;;;;;;;6.17;5.43;;;7.50;1.00;;;;;;6183310;23;20166;-79
2023/04/14 00:17:42;;;;;;;6.50;5.90;;;7.50;3.60;;;;;;6183045;23;20220;-79
2023/04/14 00:20:08;;;;;;;7.43;5.80;;;7.50;8.10;;;;;;6182753;23;20844;-79
2023/04/14 00:22:34;;;;;;;6.80;6.00;;;7.40;6.60;;;;;;6182518;23;20213;-79
2023/04/14 00:25:00;;;;;;;6.00;5.40;;;7.40;5.90;;;;;;6182836;23;20599;-80
2023/04/14 00:27:26;;;;;;;5.83;5.33;;;7.40;8.90;;;;;;6183253;23;20177;-79
2023/04/14 00:29:52;;;;;;;8.63;6.33;;;8.20;22.10;;;;;;6182209;23;20185;-81
2023/04/14 00:32:18;;;;;;;9.40;7.50;;;7.40;27.30;;;;;;6182673;23;20166;-80
2023/04/14 00:34:44;;;;;;;10.43;7.30;;;7.40;21.60;;;;;;6208793;23;20157;-81
2023/04/14 00:37:09;;;;;;;13.83;9.80;;;7.40;25.80;;;;;;6182005;23;20663;-80
2023/04/14 00:39:35;;;;;;;13.97;10.53;;;7.40;28.70;;;;;;6208265;23;20151;-78
2023/04/14 00:42:02;;;;;;;10.57;9.07;;;7.40;25.80;;;;;;6209060;23;20150;-80
2023/04/14 00:44:27;;;;;;;10.67;8.37;;;7.30;35.80;;;;;;6181604;23;20182;-78
2023/04/14 00:46:53;;;;;;;11.33;9.13;;;7.30;32.40;;;;;;6182406;23;20159;-79
2023/04/14 00:49:19;;;;;;;10.10;8.00;;;7.20;30.30;;;;;;6207884;23;20819;-79
2023/04/14 00:51:46;;;;;;;7.13;6.43;;;7.20;36.10;;;;;;6181584;23;20174;-78
2023/04/14 00:54:14;;;;;;;7.37;6.27;;;7.20;68.80;;;;;;6209199;23;20729;-79
2023/04/14 00:56:39;;;;;;;8.37;6.30;;;7.10;94.90;;;;;;6180962;23;20212;-80
2023/04/14 00:59:06;;;;;;;7.80;6.67;;;7.10;99.70;;;;;;6181671;23;20815;-81
2023/04/14 01:01:35;;;;;;;8.37;5.90;;;7.10;99.90;;;;;;6181681;23;20236;-81
2023/04/14 01:04:01;;;;;;;9.63;6.70;;;7.00;99.90;;;;;;6207958;23;20224;-79
2023/04/14 01:06:27;;;;;;;7.33;6.63;;;6.90;99.90;;;;;;6208167;23;20587;-79
2023/04/14 01:08:54;;;;;;;9.83;8.67;;;6.90;99.90;;;;;;6207753;23;20174;-81
2023/04/14 01:11:57;;;;;;;15.13;10.43;;;6.80;99.90;;;;;;6207987;23;20174;-80
2023/04/14 01:14:41;;;;;;;11.73;9.43;;;6.80;99.90;;;;;;6182231;23;20474;-81
2023/04/14 01:17:41;;;;;;;9.73;8.30;;;6.80;99.90;;;;;;6182025;23;20598;-80
2023/04/14 01:20:25;;;;;;;8.70;7.80;;;6.70;99.90;;;;;;6181151;23;20178;-81
2023/04/14 01:23:00;;;;;;;11.83;7.90;;;6.70;99.90;;;;;;6208345;23;20178;-81
2023/04/14 01:25:55;;;;;;;9.67;7.63;;;6.70;99.90;;;;;;6181534;23;20161;-81
2023/04/14 01:28:54;;;;;;;10.87;8.60;;;6.70;99.90;;;;;;6180935;23;20163;-79
2023/04/14 01:31:30;;;;;;;9.90;8.13;;;6.70;99.90;;;;;;6181137;23;20178;-81
2023/04/14 01:34:22;;;;;;;8.20;7.30;;;6.60;99.90;;;;;;6207773;23;20195;-80
2023/04/14 01:37:06;;;;;;;8.97;7.03;;;6.50;99.90;;;;;;6207513;23;20155;-81
2023/04/14 01:39:38;;;;;;;8.10;6.93;;;6.40;99.90;;;;;;6206800;23;20146;-79
2023/04/14 01:42:09;;;;;;;10.67;9.13;;;6.40;99.90;;;;;;6206995;23;20249;-80
2023/04/14 01:44:36;;;;;;;13.93;9.53;;;6.80;99.90;;;;;;6180953;23;20186;-81
2023/04/14 01:47:04;;;;;;;9.33;8.20;;;6.40;99.90;;;;;;6181964;23;20158;-81
2023/04/14 01:49:34;;;;;;;12.07;9.30;;;7.10;99.90;;;;;;6181200;23;20165;-80
2023/04/14 01:52:02;;;;;;;11.07;8.57;;;6.30;99.90;;;;;;6181619;23;20165;-81
2023/04/14 01:54:30;;;;;;;9.73;8.20;;;6.30;99.90;;;;;;6208077;23;20158;-79
2023/04/14 01:56:56;;;;;;;8.97;7.13;;;6.30;99.90;;;;;;6181287;23;20170;-79
2023/04/14 01:59:23;;;;;;;8.00;7.20;;;6.30;99.90;;;;;;6208432;23;20518;-81
2023/04/14 02:01:50;;;;;;;11.30;7.43;;;6.30;99.90;;;;;;6181735;23;20190;-79
2023/04/14 02:04:19;;;;;;;8.17;7.17;;;6.30;99.90;;;;;;6181313;23;20186;-79
2023/04/14 02:06:46;;;;;;;7.80;6.60;;;6.20;99.90;;;;;;6181630;23;20158;-81
2023/04/14 02:09:14;;;;;;;8.07;6.80;;;6.20;99.90;;;;;;6180742;23;20239;-80
2023/04/14 02:11:42;;;;;;;7.30;6.60;;;6.20;99.90;;;;;;6181313;23;20224;-80
2023/04/14 02:14:09;;;;;;;7.87;6.23;;;6.20;99.90;;;;;;6181170;23;20166;-79
2023/04/14 02:16:37;;;;;;;7.80;6.37;;;6.30;99.90;;;;;;6208345;23;20208;-81
2023/04/14 02:19:04;;;;;;;7.60;6.50;;;6.20;99.90;;;;;;6180640;23;20162;-81
2023/04/14 02:21:31;;;;;;;8.20;6.00;;;6.20;99.90;;;;;;6180765;23;20193;-81
2023/04/14 02:23:57;;;;;;;8.13;5.67;;;6.20;99.90;;;;;;6181006;23;20737;-79
2023/04/14 02:26:26;;;;;;;6.33;5.40;;;6.20;99.90;;;;;;6181515;23;20165;-82
2023/04/14 02:29:11;;;;;;;8.40;5.70;;;6.20;99.90;;;;;;6180812;23;20196;-80
2023/04/14 02:31:43;;;;;;;6.93;5.73;;;6.20;99.90;;;;;;6181225;23;20178;-79
2023/04/14 02:34:11;;;;;;;6.27;5.67;;;6.20;99.90;;;;;;6181404;23;20548;-77
2023/04/14 02:37:00;;;;;;;7.40;5.70;;;6.20;99.90;;;;;;6181026;23;20554;-79
2023/04/14 02:39:36;;;;;;;7.77;6.27;;;6.30;99.90;;;;;;6207365;23;20138;-78
2023/04/14 02:42:06;;;;;;;7.80;6.10;;;6.30;68.10;;;;;;6208061;23;20634;-82
2023/04/14 02:44:37;;;;;;;6.00;5.37;;;6.40;56.10;;;;;;6181075;23;20178;-79
2023/04/14 02:47:09;;;;;;;7.33;5.93;;;6.30;40.70;;;;;;6210086;23;20146;-79
2023/04/14 02:49:42;;;;;;;7.47;5.77;;;6.30;44.20;;;;;;6209563;23;20974;-80
2023/04/14 02:52:11;;;;;;;7.10;5.57;;;6.30;44.90;;;;;;6183420;23;20595;-81
2023/04/14 02:54:39;;;;;;;7.37;5.60;;;6.20;41.50;;;;;;6209713;23;20185;-80
2023/04/14 02:57:05;;;;;;;8.00;6.57;;;6.20;61.50;;;;;;6183374;23;20166;-80
2023/04/14 02:59:32;;;;;;;7.93;5.73;;;6.30;84.10;;;;;;6182644;23;20606;-81
2023/04/14 03:02:01;;;;;;;6.23;5.63;;;6.40;63.20;;;;;;6211300;23;20161;-80
2023/04/14 03:04:29;;;;;;;5.80;5.20;;;6.50;50.80;;;;;;6182946;23;20186;-80
2023/04/14 03:06:55;;;;;;;7.60;5.77;;;6.50;56.80;;;;;;6210134;23;20208;-78
2023/04/14 03:09:22;;;;;;;8.07;5.60;;;7.70;67.40;;;;;;6209442;23;20169;-79
2023/04/14 03:11:49;;;;;;;6.70;5.53;;;6.50;67.20;;;;;;6182836;23;20213;-78
2023/04/14 03:14:16;;;;;;;6.73;5.50;;;6.50;69.00;;;;;;6183046;23;20607;-81
2023/04/14 03:16:42;;;;;;;7.07;5.97;;;6.50;55.50;;;;;;6183112;23;20164;-79
2023/04/14 03:19:11;;;;;;;6.43;5.37;;;6.50;60.10;;;;;;6209305;23;20209;-81
2023/04/14 03:21:37;;;;;;;6.60;5.67;;;6.50;54.30;;;;;;6209311;23;21051;-79
2023/04/14 03:24:04;;;;;;;7.23;5.63;;;6.50;53.20;;;;;;6209558;23;20174;-81
2023/04/14 03:26:33;;;;;;;8.80;6.30;;;6.50;51.80;;;;;;6182679;23;20162;-79
2023/04/14 03:29:01;;;;;;;8.20;6.43;;;6.50;49.40;;;;;;6209075;23;20154;-79
2023/04/14 03:31:35;;;;;;;6.87;5.40;;;6.50;54.90;;;;;;6182470;23;20657;-80
2023/04/14 03:34:03;;;;;;;7.73;5.37;;;6.60;54.40;;;;;;6209446;23;20145;-81
2023/04/14 03:36:30;;;;;;;7.03;5.87;;;6.50;50.30;;;;;;6209369;23;20154;-81
2023/04/14 03:38:58;;;;;;;9.03;5.67;;;6.50;47.90;;;;;;6208878;23;20150;-80
2023/04/14 03:41:25;;;;;;;6.20;5.60;;;6.50;44.60;;;;;;6182700;23;20232;-81
2023/04/14 03:43:53;;;;;;;6.60;5.93;;;6.60;46.60;;;;;;6182964;23;20320;-78
2023/04/14 03:46:20;;;;;;;6.50;5.87;;;6.60;46.70;;;;;;6182276;23;20161;-79
2023/04/14 03:48:49;;;;;;;7.20;5.73;;;6.60;46.80;;;;;;6182051;23;20162;-79
2023/04/14 03:51:15;;;;;;;7.07;5.73;;;6.60;42.70;;;;;;6207753;23;20167;-79
2023/04/14 03:53:43;;;;;;;6.20;5.27;;;6.60;35.80;;;;;;6208730;23;20153;-79
2023/04/14 03:56:13;;;;;;;6.50;5.13;;;6.60;33.50;;;;;;6182749;23;20619;-78
2023/04/14 03:58:42;;;;;;;7.70;5.60;;;6.60;38.60;;;;;;6185640;23;20591;-78
2023/04/14 04:01:09;;;;;;;6.50;5.87;;;6.50;42.60;;;;;;6208720;23;20178;-81
2023/04/14 04:03:37;;;;;;;6.10;5.50;;;6.50;45.40;;;;;;6182423;23;20237;-81
2023/04/14 04:06:03;;;;;;;7.43;5.77;;;6.40;46.70;;;;;;6181981;23;20297;-79
2023/04/14 04:08:31;;;;;;;6.60;5.83;;;6.40;51.40;;;;;;6182898;23;20177;-81
2023/04/14 04:10:56;;;;;;;7.07;5.93;;;6.30;57.70;;;;;;6181980;23;20174;-80
2023/04/14 04:13:23;;;;;;;6.43;5.77;;;6.30;58.80;;;;;;6208463;23;20151;-80
2023/04/14 04:15:54;;;;;;;8.57;6.23;;;6.30;60.70;;;;;;6209169;23;20762;-80
2023/04/14 04:18:21;;;;;;;7.83;6.30;;;6.20;66.80;;;;;;6208902;23;20135;-81
2023/04/14 04:20:48;;;;;;;7.47;6.50;;;6.10;76.40;;;;;;6210716;23;20201;-80
2023/04/14 04:23:16;;;;;;;7.63;6.27;;;6.10;91.30;;;;;;6209997;23;20189;-80
2023/04/14 04:25:43;;;;;;;6.63;5.90;;;6.10;94.30;;;;;;6181521;23;20166;-78
2023/04/14 04:28:09;;;;;;;7.13;6.20;;;6.10;97.10;;;;;;6181706;23;20237;-80
2023/04/14 04:30:39;;;;;;;7.83;6.60;;;6.10;97.60;;;;;;6181401;23;20225;-81
2023/04/14 04:33:05;;;;;;;8.67;7.20;;;6.10;93.00;;;;;;6181438;23;20550;-79
2023/04/14 04:35:32;;;;;;;7.33;6.50;;;6.10;99.90;;;;;;6181845;23;20162;-80
2023/04/14 04:38:00;;;;;;;7.57;6.30;;;6.10;99.90;;;;;;6181379;23;20155;-81
2023/04/14 04:40:25;;;;;;;7.13;6.37;;;6.10;99.90;;;;;;6207766;23;20181;-81
2023/04/14 04:42:51;;;;;;;9.00;7.13;;;6.10;99.90;;;;;;6181494;23;20193;-81
2023/04/14 04:45:50;;;;;;;8.53;6.60;;;6.80;99.90;;;;;;6207827;23;20587;-80
2023/04/14 04:48:16;;;;;;;8.50;6.77;;;6.20;99.90;;;;;;6159726;23;20162;-81
2023/04/14 04:50:41;;;;;;;7.33;6.57;;;6.20;99.90;;;;;;6208818;23;20563;-80
2023/04/14 04:53:07;;;;;;;7.93;7.03;;;6.30;99.90;;;;;;6208602;23;20154;-79
2023/04/14 04:55:32;;;;;;;7.93;6.70;;;6.30;99.90;;;;;;6181386;23;20248;-79
2023/04/14 04:57:58;;;;;;;9.93;7.00;;;6.30;99.90;;;;;;6208801;23;20205;-80
2023/04/14 05:00:25;;;;;;;10.10;7.17;;;6.30;99.90;;;;;;6181174;23;20261;-78
2023/04/14 05:02:50;;;;;;;7.70;6.70;;;6.30;96.50;;;;;;6182057;23;20186;-79
2023/04/14 05:05:16;;;;;;;7.90;6.60;;;6.40;88.30;;;;;;6182139;23;20166;-82
2023/04/14 05:07:41;;;;;;;8.97;7.00;;;6.40;78.80;;;;;;6181371;23;21217;-78
2023/04/14 05:10:07;;;;;;;7.90;7.00;;;6.40;81.60;;;;;;6207821;23;20192;-79
2023/04/14 05:12:33;;;;;;;9.47;7.20;;;6.30;67.60;;;;;;6181632;23;20162;-79
2023/04/14 05:14:58;;;;;;;7.53;6.80;;;6.30;85.10;;;;;;6208413;23;20615;-80
2023/04/14 05:17:24;;;;;;;7.93;6.80;;;6.40;90.70;;;;;;6181343;23;20162;-80
2023/04/14 05:19:50;;;;;;;8.47;6.70;;;6.50;80.60;;;;;;6181106;23;20184;-80
2023/04/14 05:22:15;;;;;;;8.13;6.70;;;6.60;76.30;;;;;;6180970;23;20168;-80
2023/04/14 05:24:46;;;;;;;7.10;6.33;;;6.60;66.50;;;;;;6181534;23;20189;-78
2023/04/14 05:27:12;;;;;;;6.80;6.03;;;6.60;60.50;;;;;;6208097;23;20502;-78
2023/04/14 05:29:37;;;;;;;10.40;7.00;;;6.60;56.00;;;;;;6207764;23;20161;-81
2023/04/14 05:32:03;;;;;;;6.70;6.10;;;6.70;53.50;;;;;;6181445;23;20170;-80
2023/04/14 05:34:29;;;;;;;8.37;6.80;;;6.70;43.80;;;;;;6181077;23;20162;-78
2023/04/14 05:36:54;;;;;;;6.63;5.80;;;6.70;36.80;;;;;;6208576;23;20238;-80
2023/04/14 05:39:20;;;;;;;6.90;6.13;;;6.70;32.80;;;;;;6181988;23;20162;-78
2023/04/14 05:41:46;;;;;;;8.50;6.47;;;6.70;30.10;;;;;;6208018;23;20608;-78
2023/04/14 05:44:11;;;;;;;8.43;6.27;;;6.70;31.20;;;;;;6208258;23;20178;-80
2023/04/14 05:46:37;;;;;;;6.33;5.77;;;6.70;29.10;;;;;;6181811;23;20158;-78
2023/04/14 05:49:03;;;;;;;6.73;6.07;;;6.70;24.80;;;;;;6207875;23;20233;-81
2023/04/14 05:51:30;;;;;;;6.43;5.83;;;7.60;22.60;;;;;;6182501;23;20265;-78
2023/04/14 05:53:55;;;;;;;6.63;5.70;;;6.70;24.10;;;;;;6211085;23;20237;-77
2023/04/14 05:56:21;;;;;;;6.57;5.80;;;6.70;24.20;;;;;;6183615;23;20256;-79
2023/04/14 05:58:47;;;;;;;6.37;5.77;;;6.80;24.80;;;;;;6210398;23;20155;-78
2023/04/14 06:01:12;;;;;;;8.93;6.47;;;6.80;22.20;;;;;;6210524;23;20174;-78
2023/04/14 06:03:38;;;;;;;7.83;6.97;;;6.80;20.80;;;;;;6210560;23;20626;-78
2023/04/14 06:06:04;;;;;;;6.30;5.70;;;6.80;20.60;;;;;;6211219;23;20228;-79
2023/04/14 06:08:29;;;;;;;8.10;6.03;;;6.70;24.60;;;;;;6184023;23;20614;-79
2023/04/14 06:10:55;;;;;;;7.10;6.40;;;6.60;27.80;;;;;;6210861;23;20166;-78
2023/04/14 06:13:21;;;;;;;8.73;5.97;;;6.60;29.60;;;;;;6183511;23;20212;-78
2023/04/14 06:15:49;;;;;;;7.67;5.83;;;6.60;34.70;;;;;;6183971;23;20158;-78
2023/04/14 06:18:15;;;;;;;6.70;5.90;;;6.60;40.30;;;;;;6183893;23;20245;-78
2023/04/14 06:20:41;;;;;;;7.97;6.27;;;6.70;37.10;;;;;;6210118;23;20178;-79
2023/04/14 06:23:06;;;;;;;6.47;5.77;;;6.80;37.30;;;;;;6210947;23;20517;-78
2023/04/14 06:25:35;;;;;;;6.30;5.70;;;6.80;34.40;;;;;;6210757;23;20495;-78
2023/04/14 06:28:03;;;;;;;6.47;5.83;;;6.90;33.90;;;;;;6183811;23;20162;-78
2023/04/14 06:30:31;;;;;;;6.57;5.70;;;6.90;26.20;;;;;;6183723;23;20184;-79
2023/04/14 06:32:57;;;;;;;7.83;5.80;;;7.00;23.10;;;;;;6184087;23;20248;-77
2023/04/14 06:35:22;;;;;;;6.27;5.57;;;7.00;21.40;;;;;;6210282;23;20174;-78
2023/04/14 06:37:49;;;;;;;5.90;5.30;;;7.10;18.90;;;;;;6210962;23;20154;-77
2023/04/14 06:40:15;;;;;;;5.87;5.37;;;7.20;10.90;;;;;;6183343;23;20182;-78
2023/04/14 06:42:40;;;;;;;5.93;5.33;;;7.30;4.10;;;;;;6209864;23;20162;-78
2023/04/14 06:45:06;;;;;;;6.27;5.70;;;7.30;1.00;;;;;;6209785;23;20584;-78
2023/04/14 06:47:32;;;;;;;6.73;5.90;;;7.40;1.00;;;;;;6210315;23;20582;-78
2023/04/14 06:49:58;;;;;;;7.53;5.87;;;7.40;1.00;;;;;;6209745;23;20205;-78
2023/04/14 06:52:24;;;;;;;6.73;6.13;;;7.40;1.00;;;;;;6210599;23;20150;-80
2023/04/14 06:54:49;;;;;;;7.00;6.40;;;7.60;1.00;;;;;;6184100;23;20212;-77
2023/04/14 06:57:15;;;;;;;6.67;5.93;;;7.70;1.00;;;;;;6184751;23;20164;-78
2023/04/14 06:59:40;;;;;;;7.30;6.60;;;7.50;1.00;;;;;;6182901;23;20154;-78
2023/04/14 07:02:06;;;;;;;9.80;6.07;;;7.50;1.00;;;;;;6209310;23;20162;-78
2023/04/14 07:04:33;;;;;;;6.50;5.90;;;7.40;1.00;;;;;;6208576;23;20190;-78
2023/04/14 07:07:00;;;;;;;7.83;6.37;;;7.20;1.00;;;;;;6182219;23;20241;-79
2023/04/14 07:09:26;;;;;;;10.00;7.53;;;7.20;5.90;;;;;;6208234;23;20976;-77
2023/04/14 07:11:52;;;;;;;8.77;7.47;;;7.00;15.10;;;;;;6209430;23;20208;-78
2023/04/14 07:14:17;;;;;;;7.87;7.07;;;6.90;33.70;;;;;;6209579;23;20155;-77
2023/04/14 07:16:43;;;;;;;9.63;7.20;;;6.90;78.40;;;;;;6209547;23;20692;-78
2023/04/14 07:19:09;;;;;;;9.37;6.83;;;6.90;99.90;;;;;;6209616;23;20209;-77
2023/04/14 07:21:36;;;;;;;10.67;7.33;;;7.30;99.90;;;;;;6183465;23;20244;-78
2023/04/14 07:24:02;;;;;;;8.80;7.23;;;7.50;47.40;;;;;;6183138;23;20195;-78
2023/04/14 07:26:28;;;;;;;8.67;7.77;;;7.60;22.50;;;;;;6209071;23;20595;-78
2023/04/14 07:28:54;;;;;;;8.70;7.70;;;7.80;10.70;;;;;;6181715;23;20158;-78
2023/04/14 07:31:20;;;;;;;10.27;8.93;;;8.10;13.20;;;;;;6210190;23;20209;-79
2023/04/14 07:33:45;;;;;;;8.80;7.70;;;8.30;9.80;;;;;;6211899;23;20154;-78
2023/04/14 07:36:11;;;;;;;10.70;9.60;;;8.50;1.00;;;;;;6185141;23;20216;-79
2023/04/14 07:38:37;;;;;;;9.77;8.17;;;8.50;1.00;;;;;;6184444;23;20254;-79
2023/04/14 07:41:04;;;;;;;8.43;7.17;;;8.70;1.00;;;;;;6184690;23;20324;-79
2023/04/14 07:43:37;;;;;;;8.80;7.13;;;8.80;1.00;;;;;;6210913;23;20174;-78
2023/04/14 07:46:05;;;;;;;8.87;6.77;;;9.00;1.00;;;;;;6211183;23;20130;-78
2023/04/14 07:48:31;;;;;;;7.97;6.90;;;9.30;1.00;;;;;;6183339;23;20212;-78
2023/04/14 07:50:57;;;;;;;13.57;8.70;;;9.10;1.00;;;;;;6179743;23;20182;-78
2023/04/14 07:53:23;;;;;;;16.50;11.27;;;8.80;1.00;;;;;;6183880;23;20166;-79
2023/04/14 07:55:48;;;;;;;11.17;9.97;;;8.70;1.00;;;;;;6209349;23;20154;-79
2023/04/14 07:58:14;;;;;;;9.27;8.30;;;8.70;1.00;;;;;;6207667;23;20205;-80
2023/04/14 08:00:40;;;;;;;9.93;8.40;;;8.60;1.00;;;;;;6180226;23;20528;-79
2023/04/14 08:03:06;;;;;;;9.43;7.57;;;9.00;1.00;;;;;;6180493;23;20185;-83
2023/04/14 08:05:32;;;;;;;8.83;7.83;;;9.30;1.00;;;;;;6183558;23;20177;-84
2023/04/14 08:07:58;;;;;;;10.47;8.20;;;9.50;1.00;;;;;;6183633;23;20193;-83
2023/04/14 08:10:24;;;;;;;7.77;6.90;;;9.70;1.00;;;;;;6182688;23;20190;-82
2023/04/14 08:12:50;;;;;;;8.10;7.20;;;10.00;1.00;;;;;;6183623;23;20610;-83
2023/04/14 08:15:16;;;;;;;7.73;6.80;;;10.10;1.00;;;;;;6184102;23;20162;-82
2023/04/14 08:17:41;;;;;;;10.07;7.63;;;11.20;1.00;;;;;;6209826;23;20159;-84
2023/04/14 08:20:07;;;;;;;7.50;6.80;;;10.30;1.00;;;;;;6182705;23;20174;-82
2023/04/14 08:22:33;;;;;;;7.83;7.03;;;10.40;1.00;;;;;;6209885;23;20489;-82
2023/04/14 08:24:59;;;;;;;8.67;6.50;;;10.50;1.00;;;;;;6183065;23;20165;-82
2023/04/14 08:27:25;;;;;;;7.77;6.93;;;10.60;1.00;;;;;;6210212;23;20150;-82
2023/04/14 08:29:50;;;;;;;8.02;6.57;;;10.70;1.00;;;;;;6209562;23;20186;-81
2023/04/14 08:32:16;;;;;;;8.27;6.80;;;10.80;1.00;;;;;;6183209;23;20591;-82
2023/04/14 08:34:42;;;;;;;7.50;6.85;;;11.00;1.00;;;;;;6184170;23;20557;-83
2023/04/14 08:37:07;;;;;;;7.20;6.50;;;11.10;1.00;;;;;;6183234;23;20506;-81
2023/04/14 08:39:33;;;;;;;7.77;6.97;;;11.00;1.00;;;;;;6209220;23;20812;-83
2023/04/14 08:41:58;;;;;;;8.07;6.67;;;10.30;1.00;;;;;;6182552;23;20194;-83
2023/04/14 08:44:24;;;;;;;6.63;6.00;;;10.50;1.00;;;;;;6181660;23;20189;-82
2023/04/14 08:46:53;;;;;;;8.13;6.43;;;10.70;1.00;;;;;;6208991;23;20143;-82
2023/04/14 08:49:29;;;;;;;7.00;6.40;;;10.80;1.00;;;;;;6209168;23;20142;-82
2023/04/14 08:51:58;;;;;;;6.95;6.28;;;10.80;1.00;;;;;;6182166;23;20150;-82
2023/04/14 08:54:26;;;;;;;7.30;6.23;;;10.90;1.00;;;;;;6181740;23;20646;-82
2023/04/14 08:56:52;;;;;;;6.77;6.10;;;11.00;1.00;;;;;;6183295;23;20162;-82
2023/04/14 08:59:18;;;;;;;7.00;6.33;;;10.40;1.00;;;;;;6213688;23;20158;-82
2023/04/14 09:01:45;;;;;;;7.93;6.00;;;10.50;1.00;;;;;;6187170;23;20208;-83
2023/04/14 09:04:15;;;;;;;7.33;6.20;;;10.60;1.00;;;;;;6184920;23;20182;-83
2023/04/14 09:06:41;;;;;;;7.22;6.53;;;10.80;1.00;;;;;;6208790;23;20135;-82
2023/04/14 09:09:07;;;;;;;7.22;5.70;;;10.80;1.00;;;;;;6208805;23;20166;-82
2023/04/14 09:11:33;;;;;;;8.63;5.72;;;10.80;1.00;;;;;;6184059;23;20308;-83
2023/04/14 09:14:00;;;;;;;6.80;6.20;;;10.60;1.00;;;;;;6184130;23;20157;-82
2023/04/14 09:16:26;;;;;;;6.15;5.55;;;10.70;1.00;;;;;;6180586;23;20169;-83
2023/04/14 09:18:56;;;;;;;6.45;5.85;;;10.70;1.00;;;;;;6180379;23;20167;-83
2023/04/14 09:21:23;;;;;;;8.17;6.27;;;10.50;1.00;;;;;;6180092;23;20431;-84
2023/04/14 09:23:49;;;;;;;6.40;5.80;;;10.50;1.00;;;;;;6181400;23;20190;-83
2023/04/14 09:26:15;;;;;;;12.93;7.20;;;10.30;1.00;;;;;;6211199;23;20241;-83
2023/04/14 09:28:46;;;;;;;7.40;6.70;;;9.90;1.00;;;;;;6210064;23;20139;-83
2023/04/14 09:31:11;;;;;;;7.63;6.50;;;10.10;1.00;;;;;;6181472;23;20185;-82
2023/04/14 09:33:42;;;;;;;8.47;6.77;;;10.10;1.00;;;;;;6180145;23;20189;-83
2023/04/14 09:36:18;;;;;;;7.63;6.23;;;10.30;1.00;;;;;;6184035;23;20616;-83
2023/04/14 09:38:43;;;;;;;6.70;6.00;;;10.60;1.00;;;;;;6186101;23;20848;-83
2023/04/14 09:41:18;;;;;;;7.50;6.43;;;10.80;1.00;;;;;;6210050;23;20238;-83
2023/04/14 09:43:44;;;;;;;7.50;6.20;;;10.50;1.00;;;;;;6181509;23;20496;-83
2023/04/14 09:46:10;;;;;;;7.10;6.40;;;10.70;1.00;;;;;;6181194;23;20159;-83
2023/04/14 09:49:02;;;;;;;7.17;6.47;;;10.90;1.00;;;;;;6182362;23;20158;-84
2023/04/14 09:51:29;;;;;;;8.93;6.35;;;10.90;1.00;;;;;;6182169;23;20252;-83
2023/04/14 09:54:05;;;;;;;8.30;6.87;;;11.00;1.00;;;;;;6181575;23;20158;-83
2023/04/14 09:56:31;;;;;;;8.87;6.50;;;11.00;1.00;;;;;;6205840;23;20650;-83
2023/04/14 09:59:00;;;;;;;6.63;5.93;;;11.10;1.00;;;;;;6179139;23;20803;-82
2023/04/14 10:01:32;;;;;;;6.90;6.30;;;11.10;1.00;;;;;;6179391;23;20178;-83
2023/04/14 10:04:00;;;;;;;6.85;6.15;;;11.00;1.00;;;;;;6180108;23;20244;-83
2023/04/14 10:06:25;;;;;;;6.90;6.20;;;11.20;1.00;;;;;;6180299;23;20164;-83
2023/04/14 10:08:55;;;;;;;6.30;5.70;;;11.30;1.00;;;;;;6204708;23;20203;-83
2023/04/14 10:11:21;;;;;;;6.93;6.17;;;11.30;1.00;;;;;;6178616;23;20174;-83
2023/04/14 10:13:49;;;;;;;6.80;6.15;;;11.20;1.00;;;;;;6179282;23;20162;-83
2023/04/14 10:16:15;;;;;;;6.60;5.93;;;11.40;1.00;;;;;;6178462;23;20166;-83
2023/04/14 10:18:41;;;;;;;6.22;5.63;;;11.40;1.00;;;;;;6178735;23;20246;-83
2023/04/14 10:21:08;;;;;;;6.82;5.82;;;11.10;1.00;;;;;;6177793;23;20178;-83
2023/04/14 10:23:38;;;;;;;8.55;5.97;;;11.50;1.00;;;;;;6177888;23;20194;-82
2023/04/14 10:26:06;;;;;;;9.65;6.10;;;11.40;1.00;;;;;;6178053;23;20158;-83
2023/04/14 10:28:36;;;;;;;7.63;5.47;;;11.40;1.00;;;;;;6178520;23;20186;-82
2023/04/14 10:31:08;;;;;;;6.40;5.68;;;11.50;1.00;;;;;;6205207;23;20236;-80
2023/04/14 10:33:37;;;;;;;6.95;5.70;;;11.60;1.00;;;;;;6177997;23;20161;-80
2023/04/14 10:36:03;;;;;;;7.93;6.18;;;11.50;1.00;;;;;;6178025;23;20197;-83
2023/04/14 10:38:43;;;;;;;6.45;5.85;;;11.50;1.00;;;;;;6177839;23;20162;-83
2023/04/14 10:41:10;;;;;;;7.13;5.80;;;11.50;1.00;;;;;;6178201;23;20216;-83
2023/04/14 10:43:36;;;;;;;7.28;5.55;;;11.60;1.00;;;;;;6177878;23;20189;-82
2023/04/14 10:46:04;;;;;;;7.00;5.82;;;12.20;1.00;;;;;;6204356;23;20154;-83
2023/04/14 10:48:33;;;;;;;7.85;5.65;;;11.90;1.00;;;;;;6177649;23;20216;-83
2023/04/14 10:51:01;;;;;;;6.65;5.93;;;12.30;1.00;;;;;;6178131;23;20177;-84
2023/04/14 10:53:43;;;;;;;6.38;5.50;;;12.90;1.00;;;;;;6177741;23;20619;-83
2023/04/14 10:56:10;;;;;;;7.63;5.50;;;12.30;1.00;;;;;;6177824;23;20519;-83
2023/04/14 10:58:36;;;;;;;6.18;5.57;;;12.00;1.00;;;;;;6177200;23;20159;-84
2023/04/14 11:01:21;;;;;;;5.82;5.30;;;12.00;1.00;;;;;;6204245;23;20210;-83
2023/04/14 11:03:47;;;;;;;6.55;5.40;;;12.30;1.00;;;;;;6178914;23;20261;-83
2023/04/14 11:06:12;;;;;;;6.47;5.80;;;12.20;1.00;;;;;;6202897;23;20193;-83
2023/04/14 11:08:38;;;;;;;6.93;5.25;;;12.20;1.00;;;;;;6207215;23;20158;-83
2023/04/14 11:11:05;;;;;;;5.07;4.57;;;12.60;1.00;;;;;;6209710;22;20201;-80
2023/04/14 11:13:33;;;;;;;5.05;4.35;;;13.90;1.00;;;;;;6212182;23;20159;-80
2023/04/14 11:16:07;;;;;;;3.28;2.97;;;12.80;1.00;;;;;;6213682;23;20206;-81
2023/04/14 11:18:36;;;;;;;6.10;2.90;;;12.80;1.00;;;;;;6212406;23;20225;-80
2023/04/14 11:21:06;;;;;;;3.97;2.97;;;12.90;1.00;;;;;;6210593;23;20186;-79
2023/04/14 11:23:34;;;;;;;4.03;2.78;;;13.00;1.00;;;;;;6209875;23;20214;-83
2023/04/14 11:26:00;;;;;;;3.85;2.90;;;13.10;1.00;;;;;;6207835;23;20545;-82
2023/04/14 11:28:33;;;;;;;4.03;2.80;;;13.30;1.00;;;;;;6207058;23;20150;-82
2023/04/14 11:31:00;;;;;;;3.25;2.53;;;;;;;;;;6208498;23;20170;-82
2023/04/14 11:33:28;;;;;;;3.47;2.65;;;13.90;1.00;;;;;;6209523;23;20161;-82
2023/04/14 11:35:54;;;;;;;3.60;2.90;;;13.90;1.00;;;;;;6207717;23;20878;-83
2023/04/14 11:38:19;;;;;;;4.28;2.90;;;13.80;1.00;;;;;;6207340;23;20165;-81
2023/04/14 11:40:49;;;;;;;5.25;2.90;;;13.80;1.00;;;;;;6206333;23;20183;-82
2023/04/14 11:43:15;;;;;;;6.03;2.97;;;13.70;1.00;;;;;;6207330;23;20565;-82
2023/04/14 11:45:42;;;;;;;3.90;2.83;;;13.70;1.00;;;;;;6208052;23;20181;-81
2023/04/14 11:48:09;;;;;;;4.65;3.10;;;;;;;;;;6209526;23;20812;-81
2023/04/14 11:50:38;;;;;;;3.40;3.10;;;13.20;32.50;;;;;;6206975;23;20197;-81
2023/04/14 11:53:11;;;;;;;5.32;2.95;;;13.50;1.00;;;;;;6207374;23;20197;-82
2023/04/14 11:55:50;;;;;;;4.85;3.35;;;13.60;1.00;;;;;;6207448;23;20241;-82
2023/04/14 11:58:24;;;;;;;4.28;3.13;;;13.60;99.90;;;;;;6208707;23;20266;-81
2023/04/14 12:00:51;;;;;;;3.92;3.40;;;13.70;1.00;;;;;;6208883;23;20171;-81
2023/04/14 12:03:17;;;;;;;3.72;3.33;;;13.70;1.00;;;;;;6207250;23;20525;-80
2023/04/14 12:05:43;;;;;;;4.13;3.33;;;13.70;1.00;;;;;;6207338;23;20159;-82
2023/04/14 12:08:11;;;;;;;4.43;3.35;;;13.40;1.00;;;;;;6206622;23;20162;-82
2023/04/14 12:10:37;;;;;;;4.72;3.80;;;13.20;1.00;;;;;;6206210;23;20198;-82
2023/04/14 12:13:07;;;;;;;4.47;3.60;;;13.20;1.00;;;;;;6209059;23;20151;-82
2023/04/14 12:15:35;;;;;;;4.20;3.63;;;13.10;1.00;;;;;;6206406;23;20162;-83
2023/04/14 12:18:03;;;;;;;4.30;3.90;;;13.10;1.00;;;;;;6206412;23;20150;-82
2023/04/14 12:20:46;;;;;;;6.03;3.40;;;13.20;1.00;;;;;;6206992;23;20178;-82
2023/04/14 12:23:14;;;;;;;3.88;3.58;;;13.40;1.00;;;;;;6203990;23;20237;-83
2023/04/14 12:25:39;;;;;;;5.10;3.72;;;13.50;1.00;;;;;;6204261;23;20220;-82
2023/04/14 12:28:06;;;;;;;3.92;3.47;;;;;;;;;;6203484;23;20162;-82
2023/04/14 12:30:32;;;;;;;4.95;3.90;;;13.40;1.00;;;;;;6203577;23;20307;-82
2023/04/14 12:32:57;;;;;;;4.03;3.63;;;13.50;1.00;;;;;;6203159;23;20162;-83
2023/04/14 12:35:23;;;;;;;4.28;3.38;;;;;;;;;;6204093;23;20241;-83
2023/04/14 12:37:50;;;;;;;3.55;3.25;;;13.50;1.00;;;;;;6206480;23;20518;-84
2023/04/14 12:40:17;;;;;;;5.10;2.83;;;13.50;1.00;;;;;;6208049;23;20508;-82
2023/04/14 12:42:48;;;;;;;3.03;2.58;;;13.20;1.00;;;;;;6205935;23;20189;-83
2023/04/14 12:45:15;;;;;;;3.40;3.00;;;13.10;1.00;;;;;;6206375;23;20488;-84
2023/04/14 12:47:49;;;;;;;3.58;2.95;;;13.10;1.00;;;;;;6206364;23;20139;-83
2023/04/14 12:50:27;;;;;;;6.22;2.90;;;13.30;1.00;;;;;;6203412;23;20196;-83
2023/04/14 12:52:54;;;;;;;3.20;2.60;;;13.40;1.00;;;;;;6203100;23;20147;-82
2023/04/14 12:55:22;;;;;;;2.25;2.05;;;13.40;1.00;;;;;;6204125;23;20165;-83
2023/04/14 12:57:51;;;;;;;2.88;2.47;;;13.20;1.00;;;;;;6204123;23;20627;-82
2023/04/14 13:00:17;;;;;;;1.90;1.70;;;13.30;1.00;;;;;;6206146;23;20202;-82
2023/04/14 13:02:42;;;;;;;3.33;2.38;;;13.40;1.00;;;;;;6208192;23;20197;-82